createdAt,value
2022-11-24T10:52:03.577Z,2.60
2022-11-24T10:57:07.561Z,2.42
2022-11-24T11:02:30.576Z,2.09
2022-11-24T11:07:34.265Z,1.86
2022-11-24T11:12:44.892Z,1.75
2022-11-24T11:17:50.852Z,1.70
2022-11-24T11:22:56.660Z,1.67
2022-11-24T11:28:24.322Z,1.71
2022-11-24T11:39:00.293Z,1.83
2022-11-24T11:44:26.447Z,1.72
2022-11-24T11:49:29.783Z,1.63
2022-11-24T11:55:12.300Z,1.70
2022-11-24T12:00:24.823Z,1.73
2022-11-24T12:06:16.205Z,1.67
2022-11-24T12:11:34.505Z,1.57
2022-11-24T12:16:59.771Z,1.62
2022-11-24T12:22:02.884Z,1.71
2022-11-24T12:27:27.867Z,1.77
2022-11-24T12:33:05.651Z,1.76
2022-11-24T12:38:24.293Z,1.75
2022-11-24T12:43:32.964Z,1.84
2022-11-24T12:49:17.810Z,1.91
2022-11-24T12:54:22.090Z,1.98
2022-11-24T12:59:34.258Z,2.04
2022-11-24T13:04:54.315Z,2.12
2022-11-24T13:10:46.927Z,2.09
2022-11-24T13:16:07.101Z,2.06
2022-11-24T13:21:36.314Z,2.09
2022-11-24T13:26:42.686Z,1.99
2022-11-24T13:31:46.388Z,1.96
2022-11-24T13:36:54.089Z,1.92
2022-11-24T13:41:57.241Z,1.87
2022-11-24T13:47:24.583Z,1.87
2022-11-24T13:52:40.400Z,1.88
2022-11-24T13:57:50.923Z,1.81
2022-11-24T14:03:19.224Z,1.71
2022-11-24T14:08:27.012Z,1.58
2022-11-24T14:13:34.791Z,1.41
2022-11-24T14:18:40.405Z,1.29
2022-11-24T14:23:45.867Z,1.21
2022-11-24T14:28:50.299Z,1.19
2022-11-24T14:34:14.370Z,1.12
2022-11-24T14:39:23.366Z,1.04
2022-11-24T14:44:31.453Z,1.07
2022-11-24T14:49:39.993Z,1.09
2022-11-24T14:55:03.950Z,1.10
2022-11-24T15:00:31.412Z,1.09
2022-11-24T15:05:53.997Z,1.09
2022-11-24T15:11:00.549Z,1.13
2022-11-24T15:16:16.094Z,1.23
2022-11-24T15:21:31.393Z,1.32
2022-11-24T15:26:40.209Z,1.38
2022-11-24T15:31:52.575Z,1.49
2022-11-24T15:36:56.592Z,1.49
2022-11-24T15:42:00.180Z,1.44
2022-11-24T15:47:04.304Z,1.32
2022-11-24T15:52:07.521Z,1.30
2022-11-24T15:57:11.218Z,1.28
2022-11-24T16:02:14.481Z,1.20
2022-11-24T16:07:18.522Z,1.19
2022-11-24T16:12:21.938Z,1.21
2022-11-24T16:17:25.418Z,1.07
2022-11-24T16:22:28.597Z,0.97
2022-11-24T16:27:32.971Z,0.96
2022-11-24T16:32:36.681Z,0.99
2022-11-24T16:37:40.031Z,1.05
2022-11-24T16:42:43.245Z,1.08
2022-11-24T16:47:46.946Z,1.10
2022-11-24T16:52:50.252Z,1.07
2022-11-24T16:57:53.419Z,1.01
2022-11-24T17:02:56.803Z,1.02
2022-11-24T17:08:00.269Z,0.98
2022-11-24T17:13:03.618Z,1.00
2022-11-24T17:18:24.119Z,1.08
2022-11-24T17:23:29.096Z,1.15
2022-11-24T17:28:32.361Z,1.23
2022-11-24T17:33:36.223Z,1.18
2022-11-24T17:38:39.461Z,1.28
2022-11-24T17:43:42.761Z,1.28
2022-11-24T17:48:47.695Z,1.27
2022-11-24T17:53:53.044Z,1.34
2022-11-24T17:58:58.912Z,1.36
2022-11-24T18:04:03.961Z,1.33
2022-11-24T18:09:07.709Z,1.30
2022-11-24T18:14:11.007Z,1.25
2022-11-24T18:19:14.267Z,1.19
2022-11-24T18:24:23.773Z,1.25
2022-11-24T18:29:27.661Z,1.24
2022-11-24T18:34:30.888Z,1.26
2022-11-24T18:39:34.170Z,1.29
2022-11-24T18:44:37.568Z,1.26
2022-11-24T18:49:40.946Z,1.22
2022-11-24T18:54:44.326Z,1.18
2022-11-24T18:59:47.537Z,1.11
2022-11-24T19:04:50.801Z,1.01
2022-11-24T19:09:54.169Z,0.98
2022-11-24T19:14:57.379Z,1.05
2022-11-24T19:20:00.563Z,1.11
2022-11-24T19:25:04.070Z,1.24
2022-11-24T19:30:07.983Z,1.35
2022-11-24T19:35:11.458Z,1.41
2022-11-24T19:40:15.122Z,1.43
2022-11-24T19:45:18.496Z,1.42
2022-11-24T19:50:21.728Z,1.38
2022-11-24T19:55:25.429Z,1.35
2022-11-24T20:00:31.969Z,1.40
2022-11-24T20:05:35.426Z,1.46
2022-11-24T20:10:42.720Z,1.52
2022-11-24T20:15:45.967Z,1.56
2022-11-24T20:20:49.501Z,1.53
2022-11-24T20:25:52.769Z,1.45
2022-11-24T20:30:55.934Z,1.44
2022-11-24T20:36:06.869Z,1.48
2022-11-24T20:41:22.481Z,1.51
2022-11-24T20:46:29.061Z,1.48
2022-11-24T20:51:35.393Z,1.44
2022-11-24T20:56:41.198Z,1.46
2022-11-24T21:01:46.298Z,1.50
2022-11-24T21:06:50.315Z,1.41
2022-11-24T21:11:55.156Z,1.33
2022-11-24T21:16:58.431Z,1.34
2022-11-24T21:22:01.682Z,1.40
2022-11-24T21:27:04.872Z,1.33
2022-11-24T21:32:08.233Z,1.20
2022-11-24T21:37:11.483Z,1.16
2022-11-24T21:42:14.705Z,1.18
2022-11-24T21:47:17.868Z,1.18
2022-11-24T21:52:21.736Z,1.25
2022-11-24T21:57:25.147Z,1.34
2022-11-24T22:02:28.327Z,1.42
2022-11-24T22:07:32.817Z,1.45
2022-11-24T22:12:36.030Z,1.46
2022-11-24T22:17:39.220Z,1.49
2022-11-24T22:22:42.448Z,1.53
2022-11-24T22:27:45.700Z,1.59
2022-11-24T22:32:48.852Z,1.62
2022-11-24T22:37:52.094Z,1.63
2022-11-24T22:42:55.271Z,1.65
2022-11-24T22:47:58.508Z,1.62
2022-11-24T22:53:01.714Z,1.61
2022-11-24T22:58:04.863Z,1.54
2022-11-24T23:03:08.145Z,1.50
2022-11-24T23:08:11.662Z,1.48
2022-11-24T23:13:14.916Z,1.42
2022-11-24T23:18:18.484Z,1.36
2022-11-24T23:23:21.801Z,1.36
2022-11-24T23:28:25.034Z,1.34
2022-11-24T23:33:28.304Z,1.31
2022-11-24T23:38:34.795Z,1.28
2022-11-24T23:43:40.294Z,1.29
2022-11-24T23:48:44.789Z,1.33
2022-11-24T23:53:49.035Z,1.29
2022-11-24T23:58:52.527Z,1.30
